Tiempo atmosférico en la estación meteorológica de Hermigua, Santa Cruz de Tenerife (252 m.)



Fecha
DESCASC
Temp. máxima en grados centígrados (hora)
DESCASC
Temp. mínima en grados centígrados (hora)
DESCASC
Temp. media en grados centígrados
DESCASC
Racha de viento máxima en m/sg (hora)
DESCASC
Velocidad máxima media en intervalos de 10 minutos(hora)
DESCASC
Precipitaciones diarias en mm
DESCASC
Precipitaciones de 00:00 a 06:00 en mm
DESCASC
Precipitaciones de 06:00 a 12:00 en mm
DESCASC
Precipitaciones de 12:00 a 18:00 en mm
DESCASC
Precipitaciones de 18:00 a 24:00 en mm
DESCASC
07-08-2020 25.1 (14:20) 20.7 (06:30) 22.9 6.39 (14:30) 3.06 (14:10) 0 0 0 0 0
06-08-2020 24.9 (16:10) 20.7 (02:50) 22.8 7.5 (15:20) 3.61 (13:20) 0 0 0 0 0
05-08-2020 24.9 (15:00) 20.4 (08:00) 22.6 8.06 (14:20) 3.61 (14:20) 0 0 0 0 0
04-08-2020 24.3 (14:50) 19.9 (04:40) 22.1 7.22 (16:30) 3.33 (18:50) 0 0 0 0 0
03-08-2020 24.7 (17:00) 20.6 (07:40) 22.7 8.33 (16:30) 3.61 (16:30) 0 0 0 0 0
02-08-2020 25.6 (15:10) 19 (04:00) 22.3 7.5 (12:30) 3.33 (14:40) 0 0 0 0 0
01-08-2020 24.6 (16:10) 20.3 (00:00) 22.4 7.5 (14:20) 3.61 (14:40) 0 0 0 0 0
31-07-2020 23 (15:20) 20 (04:50) 21.5 6.94 (16:20) 2.78 (16:00) 0 0 0 0 0
30-07-2020 24.5 (14:50) 19.5 (00:00) 22 6.67 (14:10) 3.33 (16:00) 0 0 0 0 0
29-07-2020 24.1 (15:10) 20.2 (00:00) 22.2 8.89 (22:20) 3.06 (13:20) 0 0 0 0 0
28-07-2020 23.3 (15:30) 20.1 (06:40) 21.7 7.78 (21:10) 3.33 (21:10) 0 0 0 0 0
27-07-2020 23.3 (17:30) 19.9 (00:00) 21.6 7.22 (17:00) 3.33 (13:00) 0 0 0 0 0
26-07-2020 24.4 (16:20) 20.1 (00:00) 22.3 8.89 (15:30) 3.89 (15:30) 0 0 0 0 0
25-07-2020 24.3 (16:10) 19.5 (08:00) 21.9 8.06 (17:40) 4.17 (15:10) 0 0 0 0 0
24-07-2020 24.4 (14:30) 19.5 (00:00) 21.9 7.22 (15:30) 3.61 (13:10) 0 0 0 0 0
23-07-2020 23.7 (14:50) 20.1 (00:00) 21.9 6.67 (14:20) 3.61 (15:00) 0 0 0 0 0
22-07-2020 24.4 (14:10) 20.2 (06:30) 22.3 6.39 (14:10) 2.78 (13:30) 0 0 0 0 0
21-07-2020 24.4 (16:30) 19.7 (00:00) 22.1 7.22 (13:30) 3.33 (14:10) 0 0 0 0 0
20-07-2020 24.5 (14:00) 19.6 (05:00) 22.1 8.06 (14:10) 3.61 (14:10) 0 0 0 0 0
19-07-2020 29.7 (15:00) 20.7 (00:00) 25.2 6.11 (16:30) 3.61 (16:20) 0 0 0 0 0
18-07-2020 24.2 (11:10) 18.3 (00:00) 21.3 5.83 (15:50) 3.33 (15:20) 0 0 0 0 0
17-07-2020 23.6 (14:20) 19.6 (00:00) 21.6 6.67 (16:20) 3.06 (16:50) 0 0 0 0 0
16-07-2020 23.4 (14:30) 19.4 (00:00) 21.4 7.22 (15:30) 3.33 (12:40) 0 0 0 0 0
15-07-2020 22.8 (13:20) 19.5 (04:00) 21.1 8.33 (00:50) 3.89 (00:40) 0 0 0 0 0
14-07-2020 23.4 (13:50) 18.9 (00:00) 21.1 8.33 (16:00) 4.17 (14:10) 0 0 0 0 0
13-07-2020 23.9 (16:20) 17.4 (06:40) 20.6 7.22 (16:30) 3.61 (13:40) 0 0 0 0 0

Gráficas

Temp. máximas Temp. mínimas Temp. medias Precipitaciones Rachas de viento máximas Velocidades máximas media en intervalos de 10 minutos

Datos horarios

Fecha y hora oficial Temperatura (ºC) Velocidad del viento (km/h) Dirección del viento Racha (km/h) Dirección de racha Precipitación (mm) Presión (hPa) Tendencia (hPa) Humedad (%)
2020-08-11 23:00:00 21.2 7 Norte 22 Norte 0 -- -- 84
2020-08-11 22:00:00 21.2 8 Norte 20 Norte 0 -- -- 83
2020-08-11 21:00:00 21.4 10 Norte 22 Nordeste 0 -- -- 80
2020-08-11 20:00:00 21.8 10 Norte 24 Nordeste 0 -- -- 79
2020-08-11 19:00:00 22.2 9 Nordeste 23 Nordeste 0 -- -- 74
2020-08-11 18:00:00 24.5 12 Norte 28 Norte 0 -- -- 63
2020-08-11 17:00:00 25.4 9 Norte 24 Nordeste 0 -- -- 59
2020-08-11 16:00:00 25.2 9 Norte 26 Norte 0 -- -- 65
2020-08-11 15:00:00 24.6 10 Nordeste 27 Norte 0 -- -- 66
2020-08-11 14:00:00 24.7 12 Nordeste 24 Norte 0 -- -- 62
2020-08-11 13:00:00 24.2 11 Nordeste 26 Norte 0 -- -- 66
2020-08-11 12:00:00 23.5 10 Nordeste 23 Nordeste 0 -- -- 73
2020-08-11 11:00:00 22.1 8 Nordeste 19 Nordeste 0 -- -- 75
2020-08-11 10:00:00 21.7 6 Nordeste 17 Nordeste 0 -- -- 81
2020-08-11 09:00:00 21.1 7 Nordeste 17 Este 0 -- -- 77
2020-08-11 08:00:00 20.8 5 Norte 17 Nordeste 0 -- -- 81
2020-08-11 07:00:00 20.8 7 Nordeste 21 Nordeste 0 -- -- 76
2020-08-11 06:00:00 20.8 5 Nordeste 17 Nordeste 0 -- -- 80
2020-08-11 05:00:00 20.8 6 Nordeste 18 Nordeste 0 -- -- 79
2020-08-11 04:00:00 20.8 5 Nordeste 17 Nordeste 0 -- -- 80
2020-08-11 03:00:00 20.7 6 Nordeste 16 Nordeste 0 -- -- 83
2020-08-11 02:00:00 20.6 4 Norte 22 Nordeste 0 -- -- 80
2020-08-11 01:00:00 20.7 5 Norte 19 Nordeste 0 -- -- 82
2020-08-11 00:00:00 21 6 Norte 20 Nordeste 0 -- -- 81
2020-08-10 23:00:00 21.1 4 Nordeste 24 Este 0 -- -- 79
2020-08-10 22:00:00 21.1 6 Este 24 Norte 0 -- -- 77
2020-08-10 21:00:00 21.2 6 Este 21 Nordeste 0 -- -- 79
2020-08-10 20:00:00 21.7 6 Nordeste 15 Norte 0 -- -- 78
2020-08-10 19:00:00 22.1 8 Norte 23 Nordeste 0 -- -- 73
2020-08-10 18:00:00 22.8 9 Nordeste 21 Nordeste 0 -- -- 74
2020-08-10 17:00:00 23.3 8 Norte 20 Nordeste 0 -- -- 68
2020-08-10 16:00:00 23 9 Norte 19 Nordeste 0 -- -- 74
2020-08-10 15:00:00 23.3 8 Norte 19 Norte 0 -- -- 72
2020-08-10 14:00:00 22.9 8 Norte 23 Norte 0 -- -- 72
2020-08-10 13:00:00 22.7 8 Norte 19 Norte 0 -- -- 76
2020-08-10 12:00:00 21.8 6 Norte 18 Norte 0 -- -- 82
2020-08-10 11:00:00 20.8 5 Norte 22 Nordeste 0 -- -- 90
2020-08-10 10:00:00 21.1 3 Norte 21 Norte 0 -- -- 86
2020-08-10 09:00:00 21.3 9 Nordeste 17 Nordeste 0 -- -- 88
2020-08-10 08:00:00 20.9 4 Nordeste 19 Nordeste 0 -- -- 82
2020-08-10 07:00:00 20.4 12 Nordeste 24 Nordeste 0 -- -- 88
2020-08-10 06:00:00 21.1 9 Nordeste 20 Nordeste 0 -- -- 82
2020-08-10 05:00:00 21.1 5 Nordeste 19 Nordeste 0 -- -- 80
2020-08-10 04:00:00 21.3 8 Norte 22 Nordeste 0 -- -- 78
2020-08-10 03:00:00 21.2 6 Norte 19 Nordeste 0 -- -- 81
2020-08-10 02:00:00 21.2 7 Norte 25 Este 0 -- -- 77
2020-08-10 01:00:00 21.2 6 Nordeste 22 Norte 0 -- -- 79
2020-08-10 00:00:00 21.1 8 Nordeste 23 Nordeste 0 -- -- 78
2020-08-09 23:00:00 21 10 Nordeste 22 Nordeste 0 -- -- 82
2020-08-09 22:00:00 21.2 7 Nordeste 21 Nordeste 0 -- -- 82
2020-08-09 21:00:00 21.3 5 Nordeste 19 Nordeste 0 -- -- 79
2020-08-09 20:00:00 21.7 8 Norte 19 Nordeste 0 -- -- 76
2020-08-09 19:00:00 22.9 6 Nordeste 24 Nordeste 0 -- -- 71
2020-08-09 18:00:00 23.7 9 Norte 27 Norte 0 -- -- 71
2020-08-09 17:00:00 24.8 11 Nordeste 28 Nordeste 0 -- -- 69
2020-08-09 16:00:00 25.1 13 Nordeste 28 Nordeste 0 -- -- 63
2020-08-09 15:00:00 24.8 12 Nordeste 28 Nordeste 0 -- -- 65
2020-08-09 14:00:00 24.4 13 Nordeste 29 Nordeste 0 -- -- 66
2020-08-09 13:00:00 23.7 9 Nordeste 27 Nordeste 0 -- -- 69
2020-08-09 12:00:00 23.5 11 Nordeste 26 Nordeste 0 -- -- 68
2020-08-09 11:00:00 21.4 9 Nordeste 23 Nordeste 0 -- -- 79
2020-08-09 10:00:00 20.9 8 Nordeste 21 Nordeste 0 -- -- 84
2020-08-09 09:00:00 20.8 8 Nordeste 17 Nordeste 0 -- -- 83
2020-08-09 08:00:00 20.7 5 Nordeste 12 Nordeste 0 -- -- 84
2020-08-09 07:00:00 20.8 6 Nordeste 18 Nordeste 0 -- -- 83
2020-08-09 06:00:00 20.8 9 Nordeste 20 Nordeste 0 -- -- 82
2020-08-09 05:00:00 20.8 5 Nordeste 20 Nordeste 0 -- -- 83
2020-08-09 04:00:00 20.7 7 Nordeste 19 Nordeste 0 -- -- 84
2020-08-09 03:00:00 20.7 3 Sudeste 15 Este 0 -- -- 79
2020-08-09 02:00:00 20.8 4 Norte 15 Nordeste 0 -- -- 80
2020-08-09 01:00:00 20.9 6 Nordeste 16 Nordeste 0 -- -- 77
2020-08-09 00:00:00 21.3 3 Nordeste 17 Nordeste 0 -- -- 79
2020-08-08 23:00:00 21.3 4 Este 16 Noroeste 0 -- -- 78
2020-08-08 22:00:00 21.4 6 Nordeste 18 Nordeste 0 -- -- 79
2020-08-08 21:00:00 21.4 8 Nordeste 22 Nordeste 0 -- -- 79
2020-08-08 20:00:00 21.7 9 Norte 26 Norte 0 -- -- 79
2020-08-08 19:00:00 22.3 10 Nordeste 27 Nordeste 0 -- -- 77
2020-08-08 18:00:00 23.6 9 Nordeste 21 Nordeste 0 -- -- 72
2020-08-08 17:00:00 24.2 12 Nordeste 27 Norte 0 -- -- 67
2020-08-08 16:00:00 24.8 12 Nordeste 27 Nordeste 0 -- -- 66
2020-08-08 15:00:00 25 12 Nordeste 27 Nordeste 0 -- -- 62
2020-08-08 14:00:00 24.5 10 Nordeste 21 Nordeste 0 -- -- 63
2020-08-08 13:00:00 23.8 10 Nordeste 21 Nordeste 0 -- -- 70
2020-08-08 12:00:00 23.1 9 Nordeste 18 Nordeste 0 -- -- 68
2020-08-08 11:00:00 21.9 7 Nordeste 17 Nordeste 0 -- -- 71
2020-08-08 10:00:00 21.2 3 Sudeste 14 Nordeste 0 -- -- 74
2020-08-08 09:00:00 20.8 6 Nordeste 15 Nordeste 0 -- -- 75
2020-08-08 08:00:00 20.6 3 Noroeste 17 Nordeste 0 -- -- 78
2020-08-08 07:00:00 20.7 4 Nordeste 15 Nordeste 0 -- -- 77
2020-08-08 06:00:00 20.6 5 Norte 14 Norte 0 -- -- 78
2020-08-08 05:00:00 20.5 4 Nordeste 16 Norte 0 -- -- 81
2020-08-08 04:00:00 20.6 7 Nordeste 23 Nordeste 0 -- -- 84
2020-08-08 03:00:00 21.1 4 Norte 16 Norte 0 -- -- 76
2020-08-08 02:00:00 21.2 5 Nordeste 15 Noroeste 0 -- -- 75
2020-08-08 01:00:00 21 4 Norte 18 Nordeste 0 -- -- 81
2020-08-08 00:00:00 21.1 6 Norte 21 Nordeste 0 -- -- 80
2020-08-07 23:00:00 21.5 7 Norte 16 Norte 0 -- -- 75
2020-08-07 22:00:00 21.5 6 Nordeste 13 Nordeste 0 -- -- 80
2020-08-07 21:00:00 21.7 5 Norte 16 Norte 0 -- -- 75
2020-08-07 20:00:00 22.2 5 Nordeste 16 Nordeste 0 -- -- 71
2020-08-07 19:00:00 22.6 8 Nordeste 17 Norte 0 -- -- 69
2020-08-07 18:00:00 22.9 8 Nordeste 20 Nordeste 0 -- -- 67
2020-08-07 17:00:00 23.3 10 Nordeste 21 Nordeste 0 -- -- 70
2020-08-07 16:00:00 24.8 10 Nordeste 22 Nordeste 0 -- -- 63
2020-08-07 15:00:00 24.5 10 Nordeste 23 Nordeste 0 -- -- 61
2020-08-07 14:00:00 24.8 10 Nordeste 21 Nordeste 0 -- -- 62
2020-08-07 13:00:00 23.6 9 Nordeste 18 Norte 0 -- -- 65
2020-08-07 12:00:00 23.1 9 Nordeste 17 Este 0 -- -- 66
2020-08-07 11:00:00 21.9 8 Norte 15 Norte 0 -- -- 72
2020-08-07 10:00:00 21.5 6 Nordeste 13 Nordeste 0 -- -- 74
2020-08-07 09:00:00 21.1 4 Norte 10 Este 0 -- -- 74
2020-08-07 08:00:00 20.8 3 Noroeste 12 Norte 0 -- -- 74
2020-08-07 07:00:00 20.7 4 Norte 14 Norte 0 -- -- 77
2020-08-07 06:00:00 20.9 4 Nordeste 15 Noroeste 0 -- -- 80
2020-08-07 05:00:00 20.9 6 Nordeste 14 Nordeste 0 -- -- 75
2020-08-07 04:00:00 20.9 5 Norte 17 Norte 0 -- -- 75
2020-08-07 03:00:00 21.1 2 Norte 14 Norte 0 -- -- 74
2020-08-07 02:00:00 21.1 7 Nordeste 13 Nordeste 0 -- -- 73
2020-08-07 01:00:00 21.1 4 Nordeste 19 Nordeste 0 -- -- 84
2020-08-07 00:00:00 21.1 7 Nordeste 15 Nordeste 0 -- -- 84
2020-08-06 23:00:00 21.3 4 Nordeste 14 Este 0 -- -- 86
2020-08-06 22:00:00 21.4 5 Norte 13 Nordeste 0 -- -- 83
2020-08-06 21:00:00 21.5 4 Nordeste 14 Nordeste 0 -- -- 82
2020-08-06 20:00:00 21.7 7 Nordeste 16 Norte 0 -- -- 80
2020-08-06 19:00:00 22.7 9 Nordeste 20 Nordeste 0 -- -- 71
2020-08-06 18:00:00 23.5 6 Norte 21 Norte 0 -- -- 66
2020-08-06 17:00:00 23.9 9 Nordeste 27 Nordeste 0 -- -- 66
2020-08-06 16:00:00 24.7 12 Nordeste 27 Nordeste 0 -- -- 66
2020-08-06 15:00:00 24.4 10 Nordeste 24 Este 0 -- -- 65
2020-08-06 14:00:00 24 12 Nordeste 24 Nordeste 0 -- -- 69
2020-08-06 13:00:00 24.2 10 Nordeste 21 Norte 0 -- -- 67
2020-08-06 12:00:00 23.7 10 Norte 18 Norte 0 -- -- 67
2020-08-06 11:00:00 22 8 Nordeste 15 Nordeste 0 -- -- 75
2020-08-06 10:00:00 21.4 6 Nordeste 13 Norte 0 -- -- 78
2020-08-06 09:00:00 21.1 3 Norte 10 Noroeste 0 -- -- 77
2020-08-06 08:00:00 20.8 4 Sur 8 Sudoeste 0 -- -- 78
2020-08-06 07:00:00 20.8 3 Nordeste 8 Sudoeste 0 -- -- 81
2020-08-06 06:00:00 20.8 0 Calma 6 Sudoeste 0 -- -- 80
2020-08-06 05:00:00 20.9 3 Sudoeste 10 Sudoeste 0 -- -- 78
2020-08-06 04:00:00 20.9 2 Nordeste 12 Oeste 0 -- -- 78
2020-08-06 03:00:00 20.7 3 Este 17 Nordeste 0 -- -- 79
2020-08-06 02:00:00 21 3 Sudeste 12 Nordeste 0 -- -- 79
2020-08-06 01:00:00 21 6 Nordeste 15 Nordeste 0 -- -- 78
2020-08-06 00:00:00 21.1 4 Nordeste 17 Este 0 -- -- 78
2020-08-05 23:00:00 21 8 Nordeste 16 Norte 0 -- -- 81
2020-08-05 22:00:00 21.1 5 Este 17 Nordeste 0 -- -- 85
2020-08-05 21:00:00 21.3 6 Nordeste 19 Norte 0 -- -- 82
2020-08-05 20:00:00 22.1 7 Nordeste 18 Nordeste 0 -- -- 80
2020-08-05 19:00:00 23.1 9 Nordeste 22 Este 0 -- -- 74
2020-08-05 18:00:00 24.1 9 Nordeste 23 Nordeste 0 -- -- 70
2020-08-05 17:00:00 24.5 10 Nordeste 22 Nordeste 0 -- -- 68
2020-08-05 16:00:00 24.3 9 Nordeste 23 Nordeste 0 -- -- 71
2020-08-05 15:00:00 24.9 9 Nordeste 29 Norte 0 -- -- 64
2020-08-05 14:00:00 24.6 11 Nordeste 22 Nordeste 0 -- -- 65
2020-08-05 13:00:00 23.3 12 Nordeste 21 Norte 0 -- -- 74
2020-08-05 12:00:00 22.9 10 Nordeste 19 Nordeste 0 -- -- 72
2020-08-05 11:00:00 22.3 7 Nordeste 18 Nordeste 0 -- -- 73
2020-08-05 10:00:00 21.1 5 Nordeste 18 Nordeste 0 -- -- 78
2020-08-05 09:00:00 20.8 2 Sudeste 10 Nordeste 0 -- -- 80
2020-08-05 08:00:00 20.4 3 Este 8 Este 0 -- -- 82
2020-08-05 07:00:00 20.5 3 Nordeste 15 Este 0 -- -- 81
2020-08-05 06:00:00 20.6 5 Nordeste 19 Este 0 -- -- 82
2020-08-05 05:00:00 20.8 7 Oeste 15 Sudoeste 0 -- -- 80
2020-08-05 04:00:00 20.8 0 Calma 21 Nordeste 0 -- -- 82
2020-08-05 03:00:00 20.9 7 Norte 21 Nordeste 0 -- -- 83
2020-08-05 02:00:00 20.9 8 Nordeste 21 Nordeste 0 -- -- 83
2020-08-05 01:00:00 21.1 6 Nordeste 18 Norte 0 -- -- 82
2020-08-05 00:00:00 21.1 8 Nordeste 24 Nordeste 0 -- -- 82
2020-08-04 23:00:00 21.1 6 Norte 18 Nordeste 0 -- -- 82
2020-08-04 22:00:00 21 6 Nordeste 26 Nordeste 0 -- -- 83
2020-08-04 21:00:00 21.3 7 Norte 18 Nordeste 0 -- -- 81
2020-08-04 20:00:00 21.6 5 Norte 21 Nordeste 0 -- -- 80
2020-08-04 19:00:00 21.8 9 Nordeste 22 Nordeste 0 -- -- 84
2020-08-04 18:00:00 22.8 9 Nordeste 21 Este 0 -- -- 78
2020-08-04 17:00:00 24 8 Norte 26 Nordeste 0 -- -- 69
2020-08-04 16:00:00 24.2 8 Norte 20 Noroeste 0 -- -- 70
2020-08-04 15:00:00 24.3 7 Nordeste 21 Norte 0 -- -- 68
2020-08-04 14:00:00 23.7 9 Nordeste 21 Nordeste 0 -- -- 73
2020-08-04 13:00:00 23.2 10 Norte 20 Nordeste 0 -- -- 70
2020-08-04 12:00:00 22.1 9 Nordeste 21 Nordeste 0 -- -- 77
2020-08-04 11:00:00 21.1 7 Nordeste 22 Nordeste 0 -- -- 85
2020-08-04 10:00:00 20.6 5 Nordeste 21 Nordeste 0 -- -- 87
2020-08-04 09:00:00 20.2 9 Nordeste 21 Nordeste 0 -- -- 86
2020-08-04 08:00:00 20.1 7 Nordeste 22 Nordeste 0 -- -- 83
2020-08-04 07:00:00 20 5 Norte 17 Norte 0 -- -- 82
2020-08-04 06:00:00 19.9 6 Nordeste 13 Nordeste 0 -- -- 81
2020-08-04 05:00:00 19.9 4 Sudeste 17 Norte 0 -- -- 79
2020-08-04 04:00:00 20.1 5 Nordeste 14 Nordeste 0 -- -- 82
2020-08-04 03:00:00 20.3 7 Norte 17 Noroeste 0 -- -- 80
2020-08-04 02:00:00 20.4 7 Nordeste 17 Nordeste 0 -- -- 81
2020-08-04 01:00:00 20.4 7 Este 15 Este 0 -- -- 81
2020-08-04 00:00:00 20.6 5 Nordeste 12 Este 0 -- -- 80
2020-08-03 23:00:00 20.7 3 Sur 13 Este 0 -- -- 81
2020-08-03 22:00:00 20.7 4 Este 12 Nordeste 0 -- -- 81
2020-08-03 21:00:00 21.1 3 Sudoeste 13 Norte 0 -- -- 81
2020-08-03 20:00:00 22 5 Nordeste 15 Norte 0 -- -- 76
2020-08-03 19:00:00 23.9 8 Nordeste 20 Norte 0 -- -- 69
2020-08-03 18:00:00 24.1 10 Nordeste 22 Norte 0 -- -- 69
2020-08-03 17:00:00 24.7 11 Norte 30 Norte 0 -- -- 69
2020-08-03 16:00:00 24.1 10 Nordeste 23 Nordeste 0 -- -- 72
2020-08-03 15:00:00 24 10 Norte 27 Norte 0 -- -- 71
2020-08-03 14:00:00 23.4 9 Nordeste 24 Nordeste 0 -- -- 74
2020-08-03 13:00:00 23.4 10 Nordeste 20 Noroeste 0 -- -- 72
2020-08-03 12:00:00 22.2 6 Nordeste 19 Nordeste 0 -- -- 78
2020-08-03 11:00:00 22.2 8 Nordeste 18 Nordeste 0 -- -- 79
2020-08-03 10:00:00 21.7 6 Nordeste 13 Nordeste 0 -- -- 81
2020-08-03 09:00:00 21 3 Sudeste 8 Sudeste 0 -- -- 83
2020-08-03 08:00:00 20.7 3 Sudeste 10 Nordeste 0 -- -- 85
2020-08-03 07:00:00 20.7 4 Sudeste 13 Nordeste 0 -- -- 86
2020-08-03 06:00:00 21.1 3 Sur 12 Nordeste 0 -- -- 85
2020-08-03 05:00:00 21.2 4 Este 13 Este 0 -- -- 85
2020-08-03 04:00:00 21.3 5 Este 11 Este 0 -- -- 84
2020-08-03 03:00:00 21.5 3 Sudeste 14 Sudeste 0 -- -- 84
2020-08-03 02:00:00 21.5 3 Sur 9 Este 0 -- -- 84
2020-08-03 01:00:00 21.5 2 Sudeste 7 Sur 0 -- -- 83
2020-08-03 00:00:00 21.7 4 Nordeste 7 Este 0 -- -- 83
2020-08-02 23:00:00 22 2 Este 7 Sudeste 0 -- -- 81
2020-08-02 22:00:00 22 3 Este 16 Nordeste 0 -- -- 82
2020-08-02 21:00:00 22 8 Nordeste 18 Nordeste 0 -- -- 82
2020-08-02 20:00:00 22.4 7 Nordeste 17 Nordeste 0 -- -- 80
2020-08-02 19:00:00 23.2 8 Nordeste 21 Norte 0 -- -- 77
2020-08-02 18:00:00 24.1 9 Nordeste 24 Nordeste 0 -- -- 73
2020-08-02 17:00:00 25.2 8 Norte 24 Norte 0 -- -- 69
2020-08-02 16:00:00 25.2 11 Nordeste 26 Norte 0 -- -- 70
2020-08-02 15:00:00 25.1 9 Norte 24 Nordeste 0 -- -- 70
2020-08-02 14:00:00 24.7 10 Nordeste 26 Nordeste 0 -- -- 72
2020-08-02 13:00:00 24.4 9 Nordeste 27 Nordeste 0 -- -- 72
2020-08-02 12:00:00 24.1 9 Nordeste 20 Nordeste 0 -- -- 72
2020-08-02 11:00:00 22.9 9 Nordeste 18 Nordeste 0 -- -- 77
2020-08-02 10:00:00 22.5 7 Este 15 Este 0 -- -- 80
2020-08-02 09:00:00 21.3 5 Este 8 Nordeste 0 -- -- 84
2020-08-02 08:00:00 19.9 3 Sur 9 Sur 0 -- -- 85
2020-08-02 07:00:00 20.3 6 Sur 12 Sur 0 -- -- 84
2020-08-02 06:00:00 19.7 6 Sur 10 Sur 0 -- -- 87
2020-08-02 05:00:00 19.3 6 Sur 9 Sur 0 -- -- 88
2020-08-02 04:00:00 19 3 Sur 8 Sur 0 -- -- 88
2020-08-02 03:00:00 19.6 0 Calma 4 Nordeste 0 -- -- 88
2020-08-02 02:00:00 20.4 0 Calma 7 Este 0 -- -- 88
2020-08-02 01:00:00 20.7 3 Este 6 Sur 0 -- -- 90
2020-08-02 00:00:00 20.8 2 Nordeste 6 Nordeste 0 -- -- 90
2020-08-01 23:00:00 20.9 4 Este 14 Sudeste 0 -- -- 90
2020-08-01 22:00:00 21.5 2 Este 7 Este 0 -- -- 85
2020-08-01 21:00:00 21.5 4 Este 15 Nordeste 0 -- -- 85
2020-08-01 20:00:00 22.2 6 Nordeste 14 Este 0 -- -- 81
2020-08-01 19:00:00 22.6 7 Nordeste 16 Nordeste 0 -- -- 82
2020-08-01 18:00:00 23.5 8 Nordeste 21 Norte 0 -- -- 77
2020-08-01 17:00:00 23.7 11 Nordeste 24 Este 0 -- -- 76
2020-08-01 16:00:00 24.3 12 Nordeste 24 Nordeste 0 -- -- 72
2020-08-01 15:00:00 24.3 10 Nordeste 27 Norte 0 -- -- 72
2020-08-01 14:00:00 23.7 11 Nordeste 22 Nordeste 0 -- -- 73
2020-08-01 13:00:00 23.5 10 Nordeste 20 Nordeste 0 -- -- 74
2020-08-01 12:00:00 22.6 7 Nordeste 20 Nordeste 0 -- -- 77
2020-08-01 11:00:00 22.7 10 Nordeste 19 Nordeste 0 -- -- 81
2020-08-01 10:00:00 22.2 6 Nordeste 14 Norte 0 -- -- 80
2020-08-01 09:00:00 21.1 3 Este 5 Este 0 -- -- 81
2020-08-01 08:00:00 20.4 2 Sudeste 6 Sur 0 -- -- 84
2020-08-01 07:00:00 20.4 2 Sudoeste 4 Sudoeste 0 -- -- 83
2020-08-01 06:00:00 20.6 0 Calma 10 Noroeste 0 -- -- 87
2020-08-01 05:00:00 20.5 0 Calma 11 Nordeste 0 -- -- 85
2020-08-01 04:00:00 20.5 4 Nordeste 9 Nordeste 0 -- -- 86
2020-08-01 03:00:00 20.8 4 Sur 17 Sudoeste 0 -- -- 84
2020-08-01 02:00:00 20.8 4 Noroeste 10 Norte 0 -- -- 84
2020-08-01 01:00:00 20.9 2 Sur 9 Sudoeste 0 -- -- 84
2020-08-01 00:00:00 20.6 3 Norte 12 Norte 0 -- -- 84
2020-07-31 23:00:00 20.7 0 Calma 9 Nordeste 0 -- -- 84
2020-07-31 22:00:00 20.7 3 Nordeste 12 Norte 0 -- -- 84
2020-07-31 21:00:00 20.7 4 Nordeste 15 Nordeste 0 -- -- 84
2020-07-31 20:00:00 21.1 6 Nordeste 19 Este 0 -- -- 82
2020-07-31 19:00:00 21.6 8 Nordeste 17 Nordeste 0 -- -- 79
2020-07-31 18:00:00 22.1 8 Nordeste 21 Nordeste 0 -- -- 76
2020-07-31 17:00:00 22.4 8 Nordeste 25 Nordeste 0 -- -- 75
2020-07-31 16:00:00 22.9 10 Nordeste 19 Nordeste 0 -- -- 74
2020-07-31 15:00:00 22.4 7 Nordeste 16 Nordeste 0 -- -- 74
2020-07-31 14:00:00 22 9 Norte 17 Nordeste 0 -- -- 75
2020-07-31 13:00:00 22.1 7 Nordeste 18 Nordeste 0 -- -- 74
2020-07-31 12:00:00 22.5 7 Nordeste 20 Nordeste 0 -- -- 73
2020-07-31 11:00:00 21.7 7 Nordeste 17 Nordeste 0 -- -- 75
2020-07-31 10:00:00 21 5 Norte 14 Norte 0 -- -- 79
2020-07-31 09:00:00 20.8 3 Sur 11 Oeste 0 -- -- 72
2020-07-31 08:00:00 20.3 4 Sudoeste 10 Este 0 -- -- 78
2020-07-31 07:00:00 20.1 4 Nordeste 13 Nordeste 0 -- -- 79
2020-07-31 06:00:00 20.1 0 Calma 12 Este 0 -- -- 78
2020-07-31 05:00:00 20 5 Norte 15 Nordeste 0 -- -- 78
2020-07-31 04:00:00 20.1 4 Este 15 Nordeste 0 -- -- 78
2020-07-31 03:00:00 20.2 5 Norte 14 Nordeste 0 -- -- 77
2020-07-31 02:00:00 20.4 6 Nordeste 13 Nordeste 0 -- -- 77
2020-07-31 01:00:00 20.5 7 Nordeste 14 Nordeste 0 -- -- 76
2020-07-31 00:00:00 20.7 4 Nordeste 14 Nordeste 0 -- -- 75
2020-07-30 23:00:00 20.7 5 Nordeste 15 Nordeste 0 -- -- 76
2020-07-30 22:00:00 20.7 6 Nordeste 18 Nordeste 0 -- -- 77
2020-07-30 21:00:00 20.9 6 Nordeste 18 Nordeste 0 -- -- 79
2020-07-30 20:00:00 21.3 6 Nordeste 17 Nordeste 0 -- -- 78
2020-07-30 19:00:00 21.9 8 Nordeste 17 Norte 0 -- -- 73
2020-07-30 18:00:00 22.2 7 Nordeste 21 Nordeste 0 -- -- 69
2020-07-30 17:00:00 23 8 Nordeste 21 Norte 0 -- -- 70
2020-07-30 16:00:00 24.2 12 Nordeste 24 Norte 0 -- -- 63
2020-07-30 15:00:00 24.3 10 Nordeste 24 Nordeste 0 -- -- 62
2020-07-30 14:00:00 23.7 10 Nordeste 23 Nordeste 0 -- -- 62
2020-07-30 13:00:00 23.1 10 Nordeste 21 Nordeste 0 -- -- 65
2020-07-30 12:00:00 21.8 8 Nordeste 20 Nordeste 0 -- -- 68
2020-07-30 11:00:00 21 8 Norte 16 Nordeste 0 -- -- 73
2020-07-30 10:00:00 20.8 5 Nordeste 15 Norte 0 -- -- 74
2020-07-30 09:00:00 20.2 3 Nordeste 10 Nordeste 0 -- -- 73
2020-07-30 08:00:00 19.6 6 Sur 12 Sur 0 -- -- 72
2020-07-30 07:00:00 19.8 0 Calma 18 Nordeste 0 -- -- 76
2020-07-30 06:00:00 20.1 4 Nordeste 19 Nordeste 0 -- -- 76
2020-07-30 05:00:00 20.4 5 Nordeste 13 Nordeste 0 -- -- 78
2020-07-30 04:00:00 20.4 2 Noroeste 24 Este 0 -- -- 75
2020-07-30 03:00:00 20.4 6 Norte 19 Noroeste 0 -- -- 77
2020-07-30 02:00:00 20.5 6 Norte 17 Nordeste 0 -- -- 78
2020-07-30 01:00:00 20.7 4 Nordeste 18 Nordeste 0 -- -- 75
2020-07-30 00:00:00 20.7 7 Nordeste 22 Norte 0 -- -- 75
2020-07-29 23:00:00 20.8 7 Norte 32 Nordeste 0 -- -- 75
2020-07-29 22:00:00 20.8 8 Norte 23 Nordeste 0 -- -- 77
2020-07-29 21:00:00 20.9 10 Nordeste 25 Nordeste 0 -- -- 78
2020-07-29 20:00:00 21.6 9 Norte 25 Nordeste 0 -- -- 75
2020-07-29 19:00:00 22.3 8 Norte 21 Nordeste 0 -- -- 74
2020-07-29 18:00:00 23.2 9 Norte 22 Norte 0 -- -- 70
2020-07-29 17:00:00 23.8 8 Norte 24 Nordeste 0 -- -- 65
2020-07-29 16:00:00 23.6 10 Norte 26 Norte 0 -- -- 69
2020-07-29 15:00:00 23.9 10 Norte 29 Norte 0 -- -- 65
2020-07-29 14:00:00 23.5 10 Norte 31 Norte 0 -- -- 64
2020-07-29 13:00:00 23 10 Nordeste 24 Nordeste 0 -- -- 70
2020-07-29 12:00:00 22.3 9 Nordeste 24 Nordeste 0 -- -- 69
2020-07-29 11:00:00 21.6 8 Norte 26 Nordeste 0 -- -- 70
2020-07-29 10:00:00 21.1 6 Norte 18 Nordeste 0 -- -- 74
2020-07-29 09:00:00 20.5 8 Nordeste 27 Nordeste 0 -- -- 78
2020-07-29 08:00:00 20.2 8 Nordeste 23 Nordeste 0 -- -- 77
2020-07-29 07:00:00 20.2 5 Norte 23 Nordeste 0 -- -- 78
2020-07-29 06:00:00 20.2 6 Noroeste 24 Norte 0 -- -- 79
2020-07-29 05:00:00 20.4 5 Norte 18 Nordeste 0 -- -- 78
2020-07-29 04:00:00 20.4 5 Nordeste 19 Norte 0 -- -- 79
2020-07-29 03:00:00 20.4 10 Nordeste 21 Nordeste 0 -- -- 79
2020-07-29 02:00:00 20.5 6 Nordeste 20 Nordeste 0 -- -- 80
2020-07-29 01:00:00 20.4 9 Nordeste 21 Nordeste 0 -- -- 80
2020-07-29 00:00:00 20.5 8 Nordeste 22 Nordeste 0 -- -- 80
2020-07-28 23:00:00 20.6 7 Norte 21 Nordeste 0 -- -- 81
2020-07-28 22:00:00 20.7 8 Norte 28 Nordeste 0 -- -- 80
2020-07-28 21:00:00 21.2 4 Nordeste 18 Norte 0 -- -- 83
2020-07-28 20:00:00 21.5 8 Norte 20 Norte 0 -- -- 77
2020-07-28 19:00:00 21.7 8 Nordeste 20 Nordeste 0 -- -- 77
2020-07-28 18:00:00 22 10 Nordeste 23 Nordeste 0 -- -- 74
2020-07-28 17:00:00 22.9 9 Nordeste 24 Nordeste 0 -- -- 71
2020-07-28 16:00:00 23.1 6 Norte 23 Nordeste 0 -- -- 73
2020-07-28 15:00:00 23 10 Nordeste 21 Nordeste 0 -- -- 73
2020-07-28 14:00:00 22.2 10 Nordeste 19 Nordeste 0 -- -- 75
2020-07-28 13:00:00 22 6 Nordeste 19 Norte 0 -- -- 75
2020-07-28 12:00:00 21.6 7 Nordeste 15 Nordeste 0 -- -- 79
2020-07-28 11:00:00 21.2 4 Nordeste 21 Nordeste 0 -- -- 80
2020-07-28 10:00:00 20.6 8 Nordeste 16 Nordeste 0 -- -- 81
2020-07-28 09:00:00 20.4 2 Este 8 Nordeste 0 -- -- 83
2020-07-28 08:00:00 20.2 3 Nordeste 13 Nordeste 0 -- -- 82
2020-07-28 07:00:00 20.1 3 Nordeste 15 Nordeste 0 -- -- 83
2020-07-28 06:00:00 20.2 3 Nordeste 17 Nordeste 0 -- -- 84
2020-07-28 05:00:00 20.5 3 Sudeste 8 Este 0 -- -- 83
2020-07-28 04:00:00 20.6 2 Sudeste 16 Norte 0 -- -- 82
2020-07-28 03:00:00 20.7 8 Nordeste 19 Nordeste 0 -- -- 82
2020-07-28 02:00:00 20.9 4 Sudeste 16 Este 0 -- -- 80
2020-07-28 01:00:00 21 7 Este 13 Nordeste 0 -- -- 80
2020-07-28 00:00:00 21 3 Sudeste 14 Nordeste 0 -- -- 79
2020-07-27 23:00:00 20.9 3 Noroeste 14 Nordeste 0 -- -- 79
2020-07-27 22:00:00 21 4 Este 16 Nordeste 0 -- -- 78
2020-07-27 21:00:00 21.1 4 Nordeste 18 Nordeste 0 -- -- 79
2020-07-27 20:00:00 21.2 8 Nordeste 16 Nordeste 0 -- -- 80
2020-07-27 19:00:00 21.6 8 Nordeste 21 Norte 0 -- -- 78
2020-07-27 18:00:00 22.5 7 Norte 24 Nordeste 0 -- -- 74
2020-07-27 17:00:00 22.4 10 Nordeste 26 Norte 0 -- -- 75
2020-07-27 16:00:00 22.9 9 Nordeste 21 Nordeste 0 -- -- 74
2020-07-27 15:00:00 22.1 8 Nordeste 22 Nordeste 0 -- -- 75
2020-07-27 14:00:00 21.8 8 Nordeste 18 Nordeste 0 -- -- 75
2020-07-27 13:00:00 21.7 12 Nordeste 22 Nordeste 0 -- -- 75
2020-07-27 12:00:00 21.6 9 Nordeste 20 Nordeste 0 -- -- 76
2020-07-27 11:00:00 21.4 6 Nordeste 16 Nordeste 0 -- -- 77
2020-07-27 08:00:00 20 5 Nordeste 17 Nordeste 0 -- -- 82
2020-07-27 07:00:00 20.1 3 Este 9 Sur 0 -- -- 80
2020-07-27 06:00:00 20 5 Nordeste 18 Nordeste 0 -- -- 78
2020-07-27 05:00:00 20.1 3 Norte 15 Nordeste 0 -- -- 78
2020-07-27 04:00:00 20.2 3 Sudoeste 12 Sur 0 -- -- 79
2020-07-27 03:00:00 20.1 8 Nordeste 23 Nordeste 0 -- -- 78
2020-07-27 02:00:00 20.2 7 Nordeste 22 Nordeste 0 -- -- 81
2020-07-27 01:00:00 20.3 7 Nordeste 22 Nordeste 0 -- -- 80
2020-07-27 00:00:00 20.6 6 Nordeste 16 Nordeste 0 -- -- 79
2020-07-26 23:00:00 20.8 5 Este 18 Nordeste 0 -- -- 77
2020-07-26 22:00:00 20.8 5 Nordeste 22 Norte 0 -- -- 79
2020-07-26 21:00:00 21.1 6 Nordeste 22 Nordeste 0 -- -- 77
2020-07-26 20:00:00 21.3 10 Nordeste 27 Nordeste 0 -- -- 76
2020-07-26 19:00:00 22.2 7 Norte 22 Nordeste 0 -- -- 75
2020-07-26 18:00:00 22.7 10 Nordeste 26 Nordeste 0 -- -- 72
2020-07-26 17:00:00 23.6 9 Nordeste 27 Nordeste 0 -- -- 66
2020-07-26 16:00:00 24.2 14 Nordeste 32 Nordeste 0 -- -- 64
2020-07-26 15:00:00 24.2 13 Nordeste 24 Nordeste 0 -- -- 64
2020-07-26 14:00:00 23.7 12 Nordeste 23 Nordeste 0 -- -- 66
2020-07-26 13:00:00 21.9 9 Nordeste 21 Nordeste 0 -- -- 74
2020-07-26 12:00:00 21.5 8 Norte 26 Nordeste 0 -- -- 76
2020-07-26 11:00:00 21 6 Nordeste 23 Nordeste 0 -- -- 77
2020-07-26 10:00:00 20.8 5 Nordeste 22 Nordeste 0 -- -- 78
2020-07-26 09:00:00 20.4 7 Norte 22 Nordeste 0 -- -- 78
2020-07-26 08:00:00 20.4 7 Noroeste 19 Noroeste 0 -- -- 80
2020-07-26 07:00:00 20.4 0 Calma 18 Norte 0 -- -- 83
2020-07-26 06:00:00 20.4 6 Norte 20 Nordeste 0 -- -- 83
2020-07-26 05:00:00 20.4 8 Nordeste 22 Nordeste 0 -- -- 81
2020-07-26 04:00:00 20.4 7 Nordeste 22 Nordeste 0 -- -- 83
2020-07-26 03:00:00 20.3 8 Norte 22 Nordeste 0 -- -- 82
2020-07-26 02:00:00 20.2 6 Norte 23 Nordeste 0 -- -- 83
2020-07-26 01:00:00 20.2 6 Nordeste 27 Nordeste 0 -- -- 82
2020-07-26 00:00:00 20.2 5 Nordeste 22 Norte 0 -- -- 82
2020-07-25 23:00:00 20.3 8 Nordeste 17 Nordeste 0 -- -- 80
2020-07-25 22:00:00 20.6 5 Nordeste 14 Norte 0 -- -- 79
2020-07-25 21:00:00 20.8 3 Nordeste 15 Nordeste 0 -- -- 81
2020-07-25 20:00:00 21.1 9 Nordeste 23 Nordeste 0 -- -- 81
2020-07-25 19:00:00 21.6 10 Nordeste 26 Nordeste 0 -- -- 78
2020-07-25 18:00:00 23 10 Nordeste 29 Norte 0 -- -- 72
2020-07-25 17:00:00 23.6 13 Nordeste 27 Norte 0 -- -- 70
2020-07-25 16:00:00 24.2 10 Nordeste 28 Nordeste 0 -- -- 67
2020-07-25 15:00:00 23.8 14 Norte 28 Norte 0 -- -- 69
2020-07-25 14:00:00 24 10 Nordeste 23 Norte 0 -- -- 68
2020-07-25 13:00:00 22.9 10 Nordeste 26 Norte 0 -- -- 72
2020-07-25 12:00:00 23.3 10 Norte 23 Nordeste 0 -- -- 68
2020-07-25 11:00:00 22.1 7 Nordeste 15 Nordeste 0 -- -- 72
2020-07-25 10:00:00 20.6 3 Sudeste 15 Este 0 -- -- 77
2020-07-25 09:00:00 19.8 5 Nordeste 16 Nordeste 0 -- -- 80
2020-07-25 08:00:00 19.5 5 Nordeste 16 Nordeste 0 -- -- 82
2020-07-25 07:00:00 19.6 3 Nordeste 15 Nordeste 0 -- -- 81
2020-07-25 06:00:00 19.6 5 Nordeste 18 Este 0 -- -- 82
2020-07-25 05:00:00 19.6 6 Nordeste 20 Nordeste 0 -- -- 82
2020-07-25 04:00:00 19.7 8 Nordeste 16 Nordeste 0 -- -- 81
2020-07-25 03:00:00 19.8 3 Sudeste 13 Norte 0 -- -- 81
2020-07-25 02:00:00 19.8 3 Este 13 Nordeste 0 -- -- 82
2020-07-25 01:00:00 19.9 3 Sudeste 14 Nordeste 0 -- -- 82
2020-07-25 00:00:00 20 4 Nordeste 13 Nordeste 0 -- -- 82
2020-07-24 23:00:00 20.1 9 Nordeste 20 Nordeste 0 -- -- 82
2020-07-24 22:00:00 20.4 5 Nordeste 19 Nordeste 0 -- -- 82
2020-07-24 21:00:00 20.6 10 Nordeste 21 Nordeste 0 -- -- 81
2020-07-24 20:00:00 21.1 5 Nordeste 19 Nordeste 0 -- -- 79
2020-07-24 19:00:00 21.3 10 Nordeste 20 Nordeste 0 -- -- 78
2020-07-24 18:00:00 22.3 9 Nordeste 21 Norte 0 -- -- 76
2020-07-24 17:00:00 22.8 10 Nordeste 21 Este 0 -- -- 72
2020-07-24 16:00:00 22.5 11 Nordeste 26 Nordeste 0 -- -- 73
2020-07-24 15:00:00 24 10 Nordeste 22 Nordeste 0 -- -- 68
2020-07-24 14:00:00 23.8 10 Nordeste 22 Nordeste 0 -- -- 68
2020-07-24 13:00:00 23.5 10 Norte 23 Norte 0 -- -- 70
2020-07-24 12:00:00 21.9 9 Nordeste 20 Nordeste 0 -- -- 73
2020-07-24 11:00:00 21.1 8 Nordeste 17 Norte 0 -- -- 77
2020-07-24 10:00:00 20.4 4 Nordeste 17 Nordeste 0 -- -- 77
2020-07-24 09:00:00 20 3 Este 8 Este 0 -- -- 80
2020-07-24 08:00:00 19.7 2 Este 14 Nordeste 0 -- -- 79
2020-07-24 07:00:00 19.7 5 Este 22 Nordeste 0 -- -- 81
2020-07-24 06:00:00 19.7 5 Nordeste 13 Nordeste 0 -- -- 82
2020-07-24 05:00:00 19.9 3 Sur 13 Este 0 -- -- 80
2020-07-24 04:00:00 20 4 Norte 12 Nordeste 0 -- -- 82
2020-07-24 03:00:00 20.1 3 Nordeste 9 Sudoeste 0 -- -- 81
2020-07-24 02:00:00 19.9 6 Nordeste 15 Nordeste 0 -- -- 81
2020-07-24 01:00:00 20.2 4 Este 10 Nordeste 0 -- -- 80
2020-07-24 00:00:00 20.4 5 Nordeste 14 Nordeste 0 -- -- 80
2020-07-23 23:00:00 20.4 5 Nordeste 18 Nordeste 0 -- -- 82
2020-07-23 22:00:00 20.5 4 Nordeste 15 Sudeste 0 -- -- 80
2020-07-23 21:00:00 20.7 9 Nordeste 16 Nordeste 0 -- -- 80
2020-07-23 20:00:00 21.3 6 Nordeste 18 Nordeste 0 -- -- 78
2020-07-23 19:00:00 21.7 6 Nordeste 17 Nordeste 0 -- -- 78
2020-07-23 18:00:00 21.9 10 Nordeste 19 Nordeste 0 -- -- 76
2020-07-23 17:00:00 23.1 8 Nordeste 24 Norte 0 -- -- 72
2020-07-23 16:00:00 23.6 10 Nordeste 23 Noroeste 0 -- -- 70
2020-07-23 15:00:00 23.6 13 Nordeste 24 Nordeste 0 -- -- 69
2020-07-23 14:00:00 23.3 10 Norte 23 Norte 0 -- -- 70
2020-07-23 13:00:00 22.3 12 Nordeste 22 Nordeste 0 -- -- 75
2020-07-23 12:00:00 21.5 5 Nordeste 15 Nordeste 0 -- -- 76
2020-07-23 11:00:00 21 5 Este 10 Este 0 -- -- 78
2020-07-23 10:00:00 20.5 6 Nordeste 14 Nordeste 0 -- -- 79
2020-07-23 09:00:00 20.2 5 Nordeste 17 Nordeste 0 -- -- 80
2020-07-23 08:00:00 20.1 6 Este 12 Este 0 -- -- 80
2020-07-23 07:00:00 20.2 3 Este 9 Nordeste 0 -- -- 80
2020-07-23 06:00:00 20.2 2 Norte 13 Este 0 -- -- 81
2020-07-23 05:00:00 20.3 7 Nordeste 15 Nordeste 0 -- -- 80
2020-07-23 04:00:00 20.5 3 Sudeste 6 Sur 0 -- -- 74
2020-07-23 03:00:00 20.6 3 Sur 10 Este 0 -- -- 77
2020-07-23 02:00:00 20.8 4 Nordeste 8 Sudoeste 0 -- -- 80
2020-07-23 01:00:00 20.9 2 Sur 9 Sur 0 -- -- 72
2020-07-23 00:00:00 21 0 Calma 9 Nordeste 0 -- -- 79
2020-07-22 23:00:00 21 5 Nordeste 13 Norte 0 -- -- 78
2020-07-22 22:00:00 21 6 Este 12 Este 0 -- -- 79
2020-07-22 21:00:00 21.1 6 Nordeste 17 Nordeste 0 -- -- 80
2020-07-22 20:00:00 21.5 5 Nordeste 20 Nordeste 0 -- -- 77
2020-07-22 19:00:00 21.6 9 Nordeste 18 Nordeste 0 -- -- 79
2020-07-22 18:00:00 21.6 9 Nordeste 19 Nordeste 0 -- -- 79
2020-07-22 17:00:00 22.5 8 Nordeste 19 Nordeste 0 -- -- 77
2020-07-22 16:00:00 22.5 8 Nordeste 19 Nordeste 0 -- -- 76
2020-07-22 15:00:00 22.8 8 Nordeste 23 Norte 0 -- -- 74
2020-07-22 14:00:00 24.2 9 Norte 19 Norte 0 -- -- 64
2020-07-22 13:00:00 23.7 9 Norte 22 Norte 0 -- -- 66
2020-07-22 12:00:00 22.8 9 Nordeste 18 Nordeste 0 -- -- 69
2020-07-22 11:00:00 21.9 5 Nordeste 16 Nordeste 0 -- -- 71
2020-07-22 10:00:00 20.9 5 Nordeste 17 Nordeste 0 -- -- 75
2020-07-22 09:00:00 20.5 8 Nordeste 15 Nordeste 0 -- -- 79
2020-07-22 08:00:00 20.3 4 Sur 14 Nordeste 0 -- -- 76
2020-07-22 07:00:00 20.2 4 Nordeste 19 Norte 0 -- -- 78
2020-07-22 06:00:00 20.5 0 Calma 9 Oeste 0 -- -- 77
2020-07-22 05:00:00 20.3 7 Norte 19 Nordeste 0 -- -- 76
2020-07-22 04:00:00 20.6 4 Sur 15 Sudeste 0 -- -- 75
2020-07-22 03:00:00 20.5 5 Nordeste 14 Norte 0 -- -- 76
2020-07-22 02:00:00 20.6 5 Nordeste 17 Nordeste 0 -- -- 77
2020-07-22 01:00:00 20.8 5 Nordeste 13 Este 0 -- -- 78
2020-07-22 00:00:00 20.7 3 Este 15 Norte 0 -- -- 76
2020-07-21 23:00:00 20.7 5 Nordeste 20 Este 0 -- -- 77
2020-07-21 22:00:00 20.7 4 Este 17 Nordeste 0 -- -- 77
2020-07-21 21:00:00 20.9 5 Norte 19 Nordeste 0 -- -- 79
2020-07-21 20:00:00 21.3 8 Nordeste 17 Nordeste 0 -- -- 75
2020-07-21 19:00:00 21.9 8 Nordeste 17 Noroeste 0 -- -- 72
2020-07-21 18:00:00 22.4 8 Nordeste 22 Nordeste 0 -- -- 70
2020-07-21 17:00:00 23.2 9 Norte 24 Norte 0 -- -- 69
2020-07-21 16:00:00 24 11 Nordeste 24 Nordeste 0 -- -- 65
2020-07-21 15:00:00 22.5 11 Nordeste 23 Norte 0 -- -- 67
2020-07-21 14:00:00 22.7 9 Nordeste 26 Nordeste 0 -- -- 71
2020-07-21 13:00:00 23.2 8 Nordeste 18 Nordeste 0 -- -- 64
2020-07-21 12:00:00 21.5 8 Norte 18 Nordeste 0 -- -- 69
2020-07-21 11:00:00 20.9 8 Norte 21 Nordeste 0 -- -- 73
2020-07-21 10:00:00 20.3 6 Norte 20 Nordeste 0 -- -- 75
2020-07-21 09:00:00 20 6 Nordeste 20 Norte 0 -- -- 77
2020-07-21 08:00:00 19.9 8 Nordeste 23 Norte 0 -- -- 77
2020-07-21 07:00:00 19.7 5 Norte 22 Norte 0 -- -- 78
2020-07-21 06:00:00 19.8 7 Nordeste 23 Nordeste 0 -- -- 79
2020-07-21 05:00:00 19.9 5 Norte 19 Nordeste 0 -- -- 80
2020-07-21 04:00:00 20 9 Nordeste 22 Nordeste 0 -- -- 79
2020-07-21 03:00:00 20.1 7 Nordeste 23 Norte 0 -- -- 79
2020-07-21 02:00:00 20.3 5 Norte 23 Nordeste 0 -- -- 79
2020-07-21 01:00:00 20.4 7 Norte 23 Nordeste 0 -- -- 78
2020-07-21 00:00:00 20.7 7 Nordeste 24 Norte 0 -- -- 80
2020-07-20 23:00:00 20.7 8 Nordeste 25 Nordeste 0 -- -- 79
2020-07-20 22:00:00 20.7 7 Nordeste 22 Nordeste 0 -- -- 80
2020-07-20 21:00:00 20.8 10 Nordeste 25 Nordeste 0 -- -- 81
2020-07-20 20:00:00 21.4 8 Nordeste 24 Nordeste 0 -- -- 80
2020-07-20 19:00:00 22 9 Nordeste 22 Nordeste 0 -- -- 77
2020-07-20 18:00:00 22.4 9 Norte 27 Nordeste 0 -- -- 73
2020-07-20 17:00:00 22.6 9 Nordeste 23 Nordeste 0 -- -- 74
2020-07-20 16:00:00 23.3 12 Nordeste 24 Nordeste 0 -- -- 73
2020-07-20 15:00:00 24 11 Nordeste 29 Nordeste 0 -- -- 68
2020-07-20 14:00:00 24.5 13 Nordeste 26 Nordeste 0 -- -- 68
2020-07-20 13:00:00 23.2 10 Nordeste 19 Norte 0 -- -- 72
2020-07-20 12:00:00 22 8 Nordeste 18 Nordeste 0 -- -- 77
2020-07-20 11:00:00 21.2 7 Nordeste 19 Nordeste 0 -- -- 80
2020-07-20 10:00:00 21.1 5 Nordeste 21 Nordeste 0 -- -- 81
2020-07-20 09:00:00 20.7 4 Este 16 Nordeste 0 -- -- 84
2020-07-20 08:00:00 20.6 6 Este 16 Nordeste 0 -- -- 84
2020-07-20 07:00:00 20.5 4 Nordeste 9 Este 0 -- -- 84
2020-07-20 06:00:00 20.2 3 Este 9 Este 0 -- -- 86
2020-07-20 05:00:00 19.6 3 Este 6 Sudeste 0 -- -- 87
2020-07-20 04:00:00 20.1 4 Este 6 Sudeste 0 -- -- 88
2020-07-20 03:00:00 20.6 4 Sudeste 12 Este 0 -- -- 86
2020-07-20 02:00:00 21.1 4 Este 9 Este 0 -- -- 82
2020-07-20 01:00:00 21.3 5 Nordeste 11 Noroeste 0 -- -- 76
2020-07-20 00:00:00 21.4 3 Este 11 Este 0 -- -- 76
2020-07-19 23:00:00 22.1 5 Nordeste 10 Este 0 -- -- 80
2020-07-19 22:00:00 22.1 6 Este 10 Este 0 -- -- 83
2020-07-19 21:00:00 22.8 4 Nordeste 9 Este 0 -- -- 79
2020-07-19 20:00:00 23.5 5 Este 16 Este 0 -- -- 76
2020-07-19 19:00:00 24.8 8 Este 21 Nordeste 0 -- -- 71
2020-07-19 18:00:00 26.1 9 Nordeste 18 Nordeste 0 -- -- 58
2020-07-19 17:00:00 27 10 Nordeste 22 Nordeste 0 -- -- 52
2020-07-19 16:00:00 28.6 11 Nordeste 21 Nordeste 0 -- -- 45
2020-07-19 15:00:00 29.7 9 Nordeste 16 Este 0 -- -- 36
2020-07-19 14:00:00 26.3 8 Nordeste 18 Nordeste 0 -- -- 59
2020-07-19 13:00:00 25.9 8 Nordeste 17 Nordeste 0 -- -- 64
2020-07-19 12:00:00 25.5 6 Nordeste 17 Nordeste 0 -- -- 65
2020-07-19 11:00:00 25.4 5 Norte 17 Nordeste 0 -- -- 63
2020-07-19 10:00:00 27.8 3 Nordeste 15 Nordeste 0 -- -- 46
2020-07-19 09:00:00 24.2 3 Sudeste 9 Sur 0 -- -- 41
2020-07-19 08:00:00 21.4 4 Sur 10 Nordeste 0 -- -- 59
2020-07-19 07:00:00 21.3 5 Sur 9 Sudeste 0 -- -- 45
2020-07-19 06:00:00 21.5 6 Sudeste 9 Sudeste 0 -- -- 50
2020-07-19 05:00:00 21.6 7 Sudeste 10 Sudeste 0 -- -- 49
2020-07-19 04:00:00 21.4 2 Sudeste 8 Este 0 -- -- 52
2020-07-19 03:00:00 21.8 3 Este 9 Sudeste 0 -- -- 49
2020-07-19 02:00:00 21 6 Sur 9 Sur 0 -- -- 57
2020-07-19 01:00:00 21.4 4 Sur 8 Sur 0 -- -- 77
2020-07-19 00:00:00 21.9 3 Este 10 Sur 0 -- -- 85
2020-07-18 23:00:00 21.8 2 Este 5 Sudoeste 0 -- -- 85
2020-07-18 22:00:00 22 3 Nordeste 8 Oeste 0 -- -- 86
2020-07-18 21:00:00 22.1 4 Este 11 Este 0 -- -- 86
2020-07-18 20:00:00 22.5 6 Nordeste 15 Norte 0 -- -- 85
2020-07-18 19:00:00 23.5 8 Nordeste 17 Este 0 -- -- 80
2020-07-18 18:00:00 23.5 8 Nordeste 21 Este 0 -- -- 80
2020-07-18 17:00:00 23.8 10 Nordeste 19 Nordeste 0 -- -- 80
2020-07-18 16:00:00 23.9 9 Nordeste 21 Nordeste 0 -- -- 77
2020-07-18 15:00:00 23.5 11 Nordeste 20 Este 0 -- -- 79
2020-07-18 14:00:00 24.1 10 Nordeste 17 Nordeste 0 -- -- 78
2020-07-18 13:00:00 23.8 8 Nordeste 17 Nordeste 0 -- -- 79
2020-07-18 12:00:00 23 8 Nordeste 14 Nordeste 0 -- -- 82
2020-07-18 11:00:00 23.8 3 Norte 9 Norte 0 -- -- 78
2020-07-18 10:00:00 21.9 4 Nordeste 13 Nordeste 0 -- -- 86
2020-07-18 09:00:00 20.5 0 Calma 6 Sur 0 -- -- 88
2020-07-18 08:00:00 19 5 Este 7 Sur 0 -- -- 95
2020-07-18 07:00:00 18.9 4 Este 5 Este 0 -- -- 95
2020-07-18 06:00:00 18.9 0 Calma 5 Este 0 -- -- 93
2020-07-18 05:00:00 19.4 3 Este 6 Este 0 -- -- 94
2020-07-18 04:00:00 18.9 3 Sur 5 Sudeste 0 -- -- 90
2020-07-18 03:00:00 19.3 2 Sudeste 5 Este 0 -- -- 90
2020-07-18 02:00:00 19.8 4 Este 8 Este 0 -- -- 91
2020-07-18 01:00:00 20 5 Este 8 Nordeste 0 -- -- 90
2020-07-18 00:00:00 20.4 2 Sudeste 6 Nordeste 0 -- -- 88
2020-07-17 23:00:00 20.6 4 Nordeste 9 Sudeste 0 -- -- 87
2020-07-17 22:00:00 20.7 4 Nordeste 10 Nordeste 0 -- -- 87
2020-07-17 21:00:00 20.9 5 Nordeste 15 Este 0 -- -- 86
2020-07-17 20:00:00 21.5 6 Nordeste 15 Nordeste 0 -- -- 84
2020-07-17 19:00:00 22.2 8 Nordeste 23 Nordeste 0 -- -- 81
2020-07-17 18:00:00 22.3 11 Nordeste 22 Nordeste 0 -- -- 79
2020-07-17 17:00:00 22.7 11 Nordeste 24 Nordeste 0 -- -- 78
2020-07-17 16:00:00 23.1 9 Nordeste 21 Nordeste 0 -- -- 75
2020-07-17 15:00:00 23.1 8 Nordeste 19 Nordeste 0 -- -- 75
2020-07-17 14:00:00 23.1 8 Nordeste 21 Nordeste 0 -- -- 74
2020-07-17 13:00:00 22.6 9 Nordeste 20 Nordeste 0 -- -- 76
2020-07-17 12:00:00 22.2 7 Nordeste 18 Este 0 -- -- 76
2020-07-17 11:00:00 21.8 9 Nordeste 17 Nordeste 0 -- -- 78
2020-07-17 10:00:00 21.3 5 Nordeste 13 Nordeste 0 -- -- 79
2020-07-17 09:00:00 20.1 3 Sudoeste 8 Sudoeste 0 -- -- 83
2020-07-17 08:00:00 19.6 3 Sur 6 Sudoeste 0 -- -- 84
2020-07-17 07:00:00 19.7 2 Sudeste 5 Sudoeste 0 -- -- 85
2020-07-17 06:00:00 19.8 2 Sur 5 Sur 0 -- -- 84
2020-07-17 05:00:00 19.7 2 Sur 6 Sudoeste 0 -- -- 84
2020-07-17 04:00:00 19.7 2 Sur 9 Este 0 -- -- 85
2020-07-17 03:00:00 19.8 3 Nordeste 8 Norte 0 -- -- 88
2020-07-17 02:00:00 19.9 2 Este 8 Nordeste 0 -- -- 86
2020-07-17 01:00:00 20.1 3 Nordeste 9 Norte 0 -- -- 87
2020-07-17 00:00:00 20.1 4 Nordeste 10 Norte 0 -- -- 87
2020-07-16 23:00:00 20.2 3 Este 10 Nordeste 0 -- -- 86
2020-07-16 22:00:00 20.4 4 Nordeste 10 Nordeste 0 -- -- 86
2020-07-16 21:00:00 20.5 4 Nordeste 12 Norte 0 -- -- 85
2020-07-16 20:00:00 21.1 5 Nordeste 15 Nordeste 0 -- -- 82
2020-07-16 19:00:00 21.9 8 Nordeste 20 Nordeste 0 -- -- 77
2020-07-16 18:00:00 22.6 10 Nordeste 20 Nordeste 0 -- -- 74
2020-07-16 17:00:00 23 9 Nordeste 21 Nordeste 0 -- -- 72
2020-07-16 16:00:00 22.9 10 Nordeste 26 Nordeste 0 -- -- 73
2020-07-16 15:00:00 23.2 10 Nordeste 22 Este 0 -- -- 72
2020-07-16 14:00:00 22.9 11 Nordeste 24 Norte 0 -- -- 70
2020-07-16 13:00:00 22.9 11 Nordeste 25 Nordeste 0 -- -- 72
2020-07-16 12:00:00 22.6 11 Nordeste 21 Nordeste 0 -- -- 72
2020-07-16 11:00:00 21.6 8 Norte 15 Norte 0 -- -- 76
2020-07-16 10:00:00 20.4 5 Nordeste 9 Este 0 -- -- 80
2020-07-16 09:00:00 20 2 Sudoeste 8 Sudoeste 0 -- -- 80
2020-07-16 08:00:00 19.5 4 Sur 9 Sudoeste 0 -- -- 77
2020-07-16 07:00:00 19.5 2 Sudoeste 7 Sudoeste 0 -- -- 78
2020-07-16 06:00:00 19.5 3 Sur 6 Sudoeste 0 -- -- 80
2020-07-16 05:00:00 19.6 2 Oeste 7 Sudoeste 0 -- -- 82
2020-07-16 04:00:00 19.6 2 Norte 5 Nordeste 0 -- -- 82
2020-07-16 03:00:00 19.7 3 Este 5 Este 0 -- -- 82
2020-07-16 02:00:00 19.9 0 Calma 9 Nordeste 0 -- -- 79
2020-07-16 01:00:00 19.9 3 Norte 12 Nordeste 0 -- -- 82
2020-07-16 00:00:00 20.1 4 Sudoeste 11 Este 0 -- -- 82
2020-07-15 23:00:00 20.2 4 Nordeste 12 Nordeste 0 -- -- 82
2020-07-15 22:00:00 20.5 5 Nordeste 13 Nordeste 0 -- -- 81
2020-07-15 21:00:00 20.5 6 Nordeste 19 Nordeste 0 -- -- 81
2020-07-15 20:00:00 20.9 5 Nordeste 18 Nordeste 0 -- -- 81
2020-07-15 19:00:00 21.1 6 Norte 21 Noroeste 0 -- -- 84
2020-07-15 18:00:00 21.2 10 Nordeste 23 Norte 0 -- -- 83
2020-07-15 17:00:00 22 8 Nordeste 23 Nordeste 0 -- -- 79
2020-07-15 16:00:00 22.6 8 Nordeste 22 Este 0 -- -- 74
2020-07-15 15:00:00 22.8 8 Norte 28 Este 0 -- -- 73
2020-07-15 14:00:00 22.5 12 Nordeste 27 Nordeste 0 -- -- 73
2020-07-15 13:00:00 22.6 10 Nordeste 26 Nordeste 0 -- -- 70
2020-07-15 12:00:00 21.9 9 Nordeste 24 Nordeste 0 -- -- 73
2020-07-15 11:00:00 21.2 5 Nordeste 19 Norte 0 -- -- 75
2020-07-15 10:00:00 20.6 8 Nordeste 22 Nordeste 0 -- -- 77
2020-07-15 09:00:00 20.1 5 Nordeste 13 Nordeste 0 -- -- 80
2020-07-15 08:00:00 19.7 7 Nordeste 19 Nordeste 0 -- -- 80
2020-07-15 07:00:00 19.7 3 Este 9 Este 0 -- -- 82
2020-07-15 06:00:00 19.5 4 Este 17 Nordeste 0 -- -- 83
2020-07-15 05:00:00 19.5 8 Este 17 Norte 0 -- -- 83
2020-07-15 04:00:00 19.5 9 Nordeste 20 Norte 0 -- -- 84
2020-07-15 03:00:00 19.6 8 Nordeste 26 Nordeste 0 -- -- 85
2020-07-15 02:00:00 19.8 11 Nordeste 26 Nordeste 0 -- -- 85
2020-07-15 01:00:00 20 13 Nordeste 30 Este 0 -- -- 85
2020-07-15 00:00:00 20.3 9 Norte 24 Nordeste 0 -- -- 84
2020-07-14 23:00:00 20.6 7 Nordeste 26 Nordeste 0 -- -- 84
2020-07-14 22:00:00 20.7 8 Nordeste 23 Norte 0 -- -- 82
2020-07-14 21:00:00 20.9 9 Norte 19 Nordeste 0 -- -- 80
2020-07-14 20:00:00 21.1 5 Nordeste 24 Este 0 -- -- 78
2020-07-14 19:00:00 21.3 9 Nordeste 24 Norte 0 -- -- 78
2020-07-14 18:00:00 21.6 10 Nordeste 24 Norte 0 -- -- 77
2020-07-14 17:00:00 22.1 10 Norte 26 Nordeste 0 -- -- 74
2020-07-14 16:00:00 22.8 15 Nordeste 30 Norte 0 -- -- 70
2020-07-14 15:00:00 22.6 12 Nordeste 29 Nordeste 0 -- -- 72
2020-07-14 14:00:00 23.4 11 Nordeste 29 Norte 0 -- -- 68
2020-07-14 13:00:00 22.3 11 Nordeste 26 Norte 0 -- -- 67
2020-07-14 12:00:00 20.6 8 Nordeste 22 Nordeste 0 -- -- 74
2020-07-14 11:00:00 19.9 10 Nordeste 20 Nordeste 0 -- -- 80
2020-07-14 10:00:00 19.5 8 Nordeste 20 Norte 0 -- -- 82
2020-07-14 09:00:00 19.1 8 Nordeste 21 Nordeste 0 -- -- 81
2020-07-14 08:00:00 19 4 Norte 16 Este 0 -- -- 82
2020-07-14 07:00:00 19 4 Norte 16 Sudeste 0 -- -- 81
2020-07-14 06:00:00 19 4 Este 15 Norte 0 -- -- 82
2020-07-14 05:00:00 19.1 3 Nordeste 14 Nordeste 0 -- -- 82
2020-07-14 04:00:00 19.3 4 Este 12 Norte 0 -- -- 81
2020-07-14 03:00:00 19.2 4 Sur 8 Sur 0 -- -- 80
2020-07-14 02:00:00 19.4 3 Noroeste 13 Este 0 -- -- 81
2020-07-14 01:00:00 20 2 Sur 9 Nordeste 0 -- -- 79
2020-07-14 00:00:00 20 4 Nordeste 10 Norte 0 -- -- 81
2020-07-13 23:00:00 20.2 5 Norte 17 Nordeste 0 -- -- 81
2020-07-13 22:00:00 20.5 5 Este 20 Norte 0 -- -- 82
2020-07-13 21:00:00 20.7 6 Nordeste 18 Nordeste 0 -- -- 81
2020-07-13 20:00:00 21 12 Nordeste 22 Este 0 -- -- 80
2020-07-13 19:00:00 22.3 9 Nordeste 19 Nordeste 0 -- -- 73
2020-07-13 18:00:00 23.4 9 Nordeste 23 Norte 0 -- -- 71
2020-07-13 17:00:00 23.6 10 Nordeste 26 Nordeste 0 -- -- 71
2020-07-13 16:00:00 23.6 10 Nordeste 24 Nordeste 0 -- -- 71
2020-07-13 15:00:00 23.1 12 Nordeste 26 Nordeste 0 -- -- 72
2020-07-13 14:00:00 23 11 Nordeste 23 Nordeste 0 -- -- 72
2020-07-13 13:00:00 22.8 10 Nordeste 23 Nordeste 0 -- -- 71
2020-07-13 12:00:00 22.6 10 Nordeste 21 Nordeste 0 -- -- 71
2020-07-13 11:00:00 22 9 Norte 18 Nordeste 0 -- -- 73
2020-07-13 10:00:00 20 6 Nordeste 15 Nordeste 0 -- -- 81
2020-07-13 09:00:00 19.7 5 Sudoeste 10 Sudoeste 0 -- -- 79
2020-07-13 08:00:00 18.4 5 Sur 9 Sur 0 -- -- 85
2020-07-13 07:00:00 17.4 4 Sur 8 Sudeste 0 -- -- 86
2020-07-13 06:00:00 18.2 3 Sur 11 Sur 0 -- -- 81
2020-07-13 05:00:00 19.2 4 Sur 12 Este 0 -- -- 80
2020-07-13 04:00:00 18.9 4 Sur 8 Sur 0 -- -- 81
2020-07-13 03:00:00 19.2 4 Sur 9 Sur 0 -- -- 79
2020-07-13 02:00:00 20.1 4 Sur 12 Sudoeste 0 -- -- 77
2020-07-13 01:00:00 20.5 4 Sur 12 Oeste 0 -- -- 78
2020-07-13 00:00:00 20.5 6 Nordeste 12 Nordeste 0 -- -- 81